createdAt,value
2022-09-16T00:03:34.941Z,11.91
2022-09-16T00:08:40.272Z,11.89
2022-09-16T00:13:43.231Z,11.86
2022-09-16T00:18:46.239Z,11.83
2022-09-16T00:23:48.244Z,11.74
2022-09-16T00:28:51.223Z,11.70
2022-09-16T00:33:53.911Z,11.67
2022-09-16T00:38:55.689Z,11.70
2022-09-16T00:44:02.123Z,11.67
2022-09-16T00:49:18.267Z,11.62
2022-09-16T00:54:22.298Z,11.59
2022-09-16T00:59:28.728Z,11.57
2022-09-16T01:04:35.757Z,11.57
2022-09-16T01:09:40.027Z,11.61
2022-09-16T01:14:55.796Z,11.60
2022-09-16T01:20:17.065Z,11.58
2022-09-16T01:25:39.588Z,11.54
2022-09-16T01:31:10.361Z,11.48
2022-09-16T01:36:15.862Z,11.45
2022-09-16T01:41:31.126Z,11.46
2022-09-16T01:46:48.185Z,11.52
2022-09-16T01:52:03.707Z,11.49
2022-09-16T01:57:45.922Z,11.45
2022-09-16T02:03:16.214Z,11.47
2022-09-16T02:08:43.404Z,11.50
2022-09-16T02:14:08.574Z,11.54
2022-09-16T02:19:17.626Z,11.49
2022-09-16T02:24:24.877Z,11.54
2022-09-16T02:29:34.096Z,11.58
2022-09-16T02:34:43.141Z,11.52
2022-09-16T02:40:02.812Z,11.49
2022-09-16T02:45:07.165Z,11.48
2022-09-16T02:50:18.838Z,11.51
2022-09-16T02:55:39.636Z,11.46
2022-09-16T03:00:46.400Z,11.39
2022-09-16T03:06:10.892Z,11.33
2022-09-16T03:11:37.651Z,11.32
2022-09-16T03:17:14.482Z,11.31
2022-09-16T03:22:49.642Z,11.31
2022-09-16T03:28:04.098Z,11.26
2022-09-16T03:33:13.707Z,11.25
2022-09-16T03:38:18.834Z,11.26
2022-09-16T03:43:21.332Z,11.32
2022-09-16T03:48:23.699Z,11.31
2022-09-16T03:53:25.605Z,11.29
2022-09-16T03:58:29.561Z,11.30
2022-09-16T04:03:33.453Z,11.28
2022-09-16T04:08:35.682Z,11.30
2022-09-16T04:13:37.218Z,11.28
2022-09-16T04:18:40.202Z,11.21
2022-09-16T04:23:42.652Z,11.15
2022-09-16T04:28:47.044Z,11.14
2022-09-16T04:33:50.519Z,11.13
2022-09-16T04:38:53.915Z,11.06
2022-09-16T04:43:58.489Z,11.04
2022-09-16T04:49:03.375Z,11.02
2022-09-16T04:54:05.975Z,11.00
2022-09-16T04:59:10.332Z,11.08
2022-09-16T05:04:12.731Z,11.23
2022-09-16T05:09:16.617Z,11.43
2022-09-16T05:14:20.885Z,11.63
2022-09-16T05:19:23.625Z,11.75
2022-09-16T05:24:26.270Z,11.81
2022-09-16T05:29:29.103Z,11.89
2022-09-16T05:34:31.226Z,11.95
2022-09-16T05:39:33.987Z,11.94
2022-09-16T05:44:37.211Z,11.96
2022-09-16T05:49:39.359Z,12.01
2022-09-16T05:54:42.716Z,12.11
2022-09-16T05:59:46.056Z,12.25
2022-09-16T06:04:50.351Z,12.30
2022-09-16T06:09:52.551Z,12.36
2022-09-16T06:14:54.829Z,12.45
2022-09-16T06:19:57.911Z,12.64
2022-09-16T06:24:59.620Z,12.64
2022-09-16T06:30:02.823Z,12.68
2022-09-16T06:35:06.102Z,12.85
2022-09-16T06:40:09.876Z,13.04
2022-09-16T06:45:13.033Z,13.21
2022-09-16T06:50:15.922Z,13.48
2022-09-16T06:55:18.691Z,13.84
2022-09-16T07:00:24.069Z,14.26
2022-09-16T07:05:25.776Z,14.73
2022-09-16T07:10:27.810Z,15.39
2022-09-16T07:15:31.495Z,15.95
2022-09-16T07:20:33.854Z,16.60
2022-09-16T07:25:36.104Z,16.67
2022-09-16T07:30:38.927Z,16.73
2022-09-16T07:35:41.724Z,16.43
2022-09-16T07:40:44.413Z,16.98
2022-09-16T07:45:48.408Z,17.04
2022-09-16T07:51:08.996Z,16.68
2022-09-16T07:56:18.066Z,16.31
2022-09-16T08:01:22.425Z,16.04
2022-09-16T08:06:29.799Z,16.43
2022-09-16T08:11:32.947Z,17.17
2022-09-16T08:16:35.803Z,17.52
2022-09-16T08:21:38.492Z,17.57
2022-09-16T08:26:41.853Z,17.32
2022-09-16T08:31:45.269Z,17.09
2022-09-16T08:36:47.975Z,17.38
2022-09-16T08:42:12.782Z,17.32
2022-09-16T08:47:35.122Z,17.49
2022-09-16T08:52:41.139Z,17.85
2022-09-16T08:58:08.746Z,18.31
2022-09-16T09:03:30.852Z,18.41
2022-09-16T09:08:40.654Z,18.59
2022-09-16T09:13:59.167Z,18.85
2022-09-16T09:19:16.765Z,18.78
2022-09-16T09:24:19.415Z,18.45
2022-09-16T09:29:51.866Z,17.96
2022-09-16T09:35:06.838Z,18.05
2022-09-16T09:40:12.956Z,17.92
2022-09-16T09:46:17.716Z,17.86
2022-09-16T09:51:31.651Z,17.50
2022-09-16T09:56:42.840Z,17.32
2022-09-16T10:01:55.195Z,17.30
2022-09-16T10:06:59.029Z,17.27
2022-09-16T10:12:02.092Z,17.69
2022-09-16T10:17:18.211Z,18.13
2022-09-16T10:22:28.971Z,18.06
2022-09-16T10:27:36.630Z,18.56
2022-09-16T10:32:46.157Z,18.97
2022-09-16T10:38:03.934Z,18.59
2022-09-16T10:43:15.562Z,18.39
2022-09-16T10:48:28.129Z,17.87
2022-09-16T10:53:39.143Z,17.52
2022-09-16T10:58:44.997Z,18.00
2022-09-16T11:04:03.770Z,18.41
2022-09-16T11:09:14.927Z,18.78
2022-09-16T11:14:38.732Z,19.02
2022-09-16T11:19:47.672Z,18.72
2022-09-16T11:24:53.659Z,18.77
2022-09-16T11:30:15.022Z,18.62
2022-09-16T11:35:35.169Z,18.22
2022-09-16T11:40:59.178Z,18.00
2022-09-16T11:46:02.425Z,17.89
2022-09-16T11:51:05.322Z,17.80
2022-09-16T11:56:14.406Z,17.69
2022-09-16T12:01:57.677Z,17.63
2022-09-16T12:07:12.332Z,17.72
2022-09-16T12:12:19.930Z,17.68
2022-09-16T12:17:26.753Z,17.87
2022-09-16T12:22:28.893Z,18.04
2022-09-16T12:27:53.086Z,18.14
2022-09-16T12:33:06.677Z,18.29
2022-09-16T12:38:21.015Z,18.13
2022-09-16T12:43:48.338Z,17.92
2022-09-16T12:49:18.213Z,17.83
2022-09-16T12:54:45.930Z,17.52
2022-09-16T13:00:23.739Z,17.01
2022-09-16T13:05:33.560Z,16.42
2022-09-16T13:11:11.591Z,16.35
2022-09-16T13:16:07.620Z,16.65
2022-09-16T13:21:25.281Z,16.80
2022-09-16T13:26:39.425Z,16.97
2022-09-16T13:31:48.856Z,17.15
2022-09-16T13:36:51.639Z,17.20
2022-09-16T13:41:55.298Z,17.04
2022-09-16T13:47:09.667Z,16.82
2022-09-16T13:52:18.086Z,16.64
2022-09-16T13:57:36.712Z,16.51
2022-09-16T14:02:42.812Z,16.37
2022-09-16T14:08:00.259Z,16.15
2022-09-16T14:13:23.775Z,16.17
2022-09-16T14:18:32.888Z,16.44
2022-09-16T14:23:34.993Z,16.63
2022-09-16T14:28:38.774Z,16.63
2022-09-16T14:33:57.123Z,16.54
2022-09-16T14:39:02.606Z,16.55
2022-09-16T14:44:23.144Z,16.60
2022-09-16T14:49:26.398Z,16.74
2022-09-16T14:54:31.745Z,16.78
2022-09-16T14:59:37.894Z,16.67
2022-09-16T15:04:43.978Z,16.50
2022-09-16T15:09:58.007Z,16.31
2022-09-16T15:15:05.197Z,16.23
2022-09-16T15:20:20.582Z,16.18
2022-09-16T15:25:25.481Z,16.21
2022-09-16T15:30:29.955Z,16.43
2022-09-16T15:35:35.075Z,16.48
2022-09-16T15:40:38.155Z,16.37
2022-09-16T15:45:41.528Z,16.26
2022-09-16T15:50:51.565Z,16.12
2022-09-16T15:56:04.236Z,15.96
2022-09-16T16:01:16.230Z,15.84
2022-09-16T16:06:19.109Z,15.66
2022-09-16T16:11:23.089Z,15.40
2022-09-16T16:16:25.488Z,15.20
2022-09-16T16:21:27.380Z,14.98
2022-09-16T16:26:29.162Z,14.81
2022-09-16T16:31:32.460Z,14.66
2022-09-16T16:36:34.354Z,14.50
2022-09-16T16:41:36.862Z,14.34
2022-09-16T16:46:39.274Z,14.20
2022-09-16T16:51:42.297Z,14.11
2022-09-16T16:56:46.171Z,14.04
2022-09-16T17:01:52.074Z,13.93
2022-09-16T17:07:21.555Z,13.77
2022-09-16T17:12:17.881Z,13.61
2022-09-16T17:17:20.013Z,13.51
2022-09-16T17:22:21.864Z,13.39
2022-09-16T17:27:26.607Z,13.33
2022-09-16T17:32:28.667Z,13.24
2022-09-16T17:37:31.833Z,13.13
2022-09-16T17:42:34.895Z,13.09
2022-09-16T17:47:37.229Z,12.97
2022-09-16T17:52:39.691Z,12.80
2022-09-16T17:57:41.918Z,12.62
2022-09-16T18:02:44.347Z,12.44
2022-09-16T18:07:46.695Z,12.27
2022-09-16T18:12:49.636Z,12.11
2022-09-16T18:17:54.191Z,11.87
2022-09-16T18:22:57.401Z,11.62
2022-09-16T18:28:00.918Z,11.55
2022-09-16T18:33:04.004Z,11.55
2022-09-16T18:38:11.484Z,11.50
2022-09-16T18:43:14.131Z,11.37
2022-09-16T18:48:16.799Z,11.19
2022-09-16T18:53:20.231Z,11.09
2022-09-16T18:58:23.705Z,11.00
2022-09-16T19:03:27.695Z,10.94
2022-09-16T19:08:31.643Z,10.93
2022-09-16T19:13:35.229Z,10.91
2022-09-16T19:18:38.316Z,10.92
2022-09-16T19:23:42.038Z,10.85
2022-09-16T19:28:43.976Z,10.79
2022-09-16T19:33:46.801Z,10.75
2022-09-16T19:38:50.558Z,10.75
2022-09-16T19:43:56.086Z,10.75
2022-09-16T19:48:59.142Z,10.75
2022-09-16T19:54:02.845Z,10.73
2022-09-16T19:59:06.037Z,10.69
2022-09-16T20:04:09.100Z,10.61
2022-09-16T20:09:14.565Z,10.54
2022-09-16T20:14:21.406Z,10.49
2022-09-16T20:19:23.522Z,10.39
2022-09-16T20:24:25.773Z,10.33
2022-09-16T20:29:32.195Z,10.28
2022-09-16T20:34:38.282Z,10.22
2022-09-16T20:39:41.502Z,10.17
2022-09-16T20:44:47.623Z,10.14
2022-09-16T20:49:52.262Z,10.13
2022-09-16T20:54:59.557Z,10.13
2022-09-16T21:00:04.453Z,10.10
2022-09-16T21:05:07.597Z,10.09
2022-09-16T21:10:11.439Z,10.09
2022-09-16T21:15:16.374Z,10.09
2022-09-16T21:20:19.036Z,10.05
2022-09-16T21:25:23.655Z,9.97
2022-09-16T21:30:26.804Z,9.92
2022-09-16T21:35:29.342Z,9.95
2022-09-16T21:40:31.566Z,9.94
2022-09-16T21:45:34.109Z,9.91
2022-09-16T21:50:37.522Z,9.90
2022-09-16T21:55:40.828Z,9.88
2022-09-16T22:00:43.905Z,9.79
2022-09-16T22:05:46.648Z,9.76
2022-09-16T22:10:49.526Z,9.73
2022-09-16T22:15:52.638Z,9.70
2022-09-16T22:20:59.355Z,9.67
2022-09-16T22:26:06.681Z,9.64
2022-09-16T22:31:15.829Z,9.63
2022-09-16T22:36:24.484Z,9.60
2022-09-16T22:41:27.840Z,9.60
2022-09-16T22:46:34.041Z,9.57
2022-09-16T22:51:37.167Z,9.57
2022-09-16T22:56:39.051Z,9.57
2022-09-16T23:01:41.001Z,9.57
2022-09-16T23:06:43.719Z,9.57
2022-09-16T23:11:46.598Z,9.55
2022-09-16T23:16:49.363Z,9.53
2022-09-16T23:21:51.576Z,9.50
2022-09-16T23:26:54.159Z,9.50
2022-09-16T23:31:57.285Z,9.47
2022-09-16T23:37:00.274Z,9.45
2022-09-16T23:42:03.564Z,9.47
2022-09-16T23:47:07.549Z,9.42
2022-09-16T23:52:09.881Z,9.36
2022-09-16T23:57:11.935Z,9.39
